Flight Track Log - Related Links

Times and Time Zones

All times are in EDT time to prevent confusion due to time zone crossing. See the ASH2629 flight status page for this flight to view local times or setup timezone preferences in your user account.

Time Position Orientation Groundspeed Altitude Reporting Facility
EDT Latitude Longitude Course Direction KTS MPH feet Rate Location/Type
Sat 08:16:15 PM 32.0956 -110.9289 328° Northwest  Level FlightAware Approximate
Sat 08:16:50 PM 32.1217 -110.9481 North 169 194 3,200  Level Albuquerque Center
Sat 08:18:41 PM 32.2283 -110.9403 353° North 248 285 7,100 1,930 Climbing Albuquerque Center
Sat 08:19:41 PM 32.2947 -110.9503 343° North 248 285 8,700 2,150 Climbing Albuquerque Center
Sat 08:20:41 PM 32.3772 -110.9808 344° North 269 310 11,400 2,350 Climbing Albuquerque Center
Sat 08:21:41 PM 32.4681 -111.0117 341° North 312 359 13,400 2,300 Climbing Albuquerque Center
Sat 08:22:41 PM 32.5608 -111.0500 326° Northwest 338 389 16,000 1,300 Climbing Albuquerque Center
Sat 08:23:41 PM 32.6503 -111.1206 327° Northwest 361 415 16,000  Level Albuquerque Center
Sat 08:24:41 PM 32.7500 -111.1989 325° Northwest 375 432 16,000  Level Albuquerque Center
Sat 08:25:41 PM 32.8394 -111.2722 326° Northwest 387 445 16,000 -100 Level Albuquerque Center
Sat 08:26:41 PM 32.9289 -111.3431 323° Northwest 392 451 15,800 -700 Descending Albuquerque Center
Sat 08:27:41 PM 33.0058 -111.4133 304° West 381 438 14,600 -1,450 Descending Albuquerque Center
Sat 08:28:41 PM 33.0531 -111.4975 293° West 336 387 12,900 -1,150 Descending Albuquerque Center
Sat 08:29:41 PM 33.0778 -111.5656 322° Northwest 311 358 12,300 -1,068 Descending Albuquerque Center
Sat 08:30:39 PM 33.1333 -111.6167 348° North 245 282 10,800 -1,661 Descending Phoenix TRACON
Sat 08:31:33 PM 33.2000 -111.6333 337° Northwest 239 275 9,200 -1,429 Descending Phoenix TRACON
Sat 08:32:45 PM 33.2667 -111.6667 344° North 204 235 7,800 -1,333 Descending Phoenix TRACON
Sat 08:33:39 PM 33.3167 -111.6833 331° Northwest 190 219 6,400 -1,388 Descending Phoenix TRACON
Sat 08:34:46 PM 33.3667 -111.7167 292° West 184 212 5,000 -694 Descending Phoenix TRACON
Sat 08:35:40 PM 33.3833 -111.7667 309° West 192 221 5,000 -372 Level Phoenix TRACON
Sat 08:36:39 PM 33.4167 -111.8167 292° West 187 215 4,300 -900 Descending Phoenix TRACON
Sat 08:37:40 PM 33.4333 -111.8667 292° West 181 208 3,200 -1,082 Descending Phoenix TRACON

Login

Don't have an account? Register now (free) for customized features, flight alerts, and more!